createdAt,value
2023-01-29T17:29:31.667Z,15.05
2023-01-29T17:31:34.276Z,18.25
2023-01-29T17:33:42.791Z,18.40
2023-01-29T17:35:46.037Z,18.38
2023-01-29T17:37:48.426Z,19.27
2023-01-29T17:39:50.956Z,18.67
2023-01-29T17:41:55.728Z,19.52
2023-01-29T17:43:58.208Z,17.63
2023-01-29T17:46:00.692Z,21.48
2023-01-29T17:48:03.210Z,21.92
2023-01-29T17:50:17.675Z,23.40
2023-01-29T17:52:20.068Z,22.55
2023-01-29T17:54:23.523Z,26.90
2023-01-29T17:56:32.713Z,22.83
2023-01-29T17:58:35.302Z,23.77
2023-01-29T18:00:37.708Z,23.45
2023-01-29T18:02:40.095Z,22.50
2023-01-29T18:04:42.567Z,23.90
2023-01-29T18:06:46.998Z,26.38
2023-01-29T18:08:49.333Z,26.63
2023-01-29T18:10:51.750Z,24.90
2023-01-29T18:12:54.419Z,27.45
2023-01-29T18:14:57.015Z,23.73
2023-01-29T18:16:59.439Z,21.70
2023-01-29T18:19:01.951Z,20.63
2023-01-29T18:21:04.576Z,19.75
2023-01-29T18:25:12.922Z,20.50
2023-01-29T18:27:15.365Z,17.52
2023-01-29T18:29:17.865Z,19.70
2023-01-29T18:31:20.383Z,19.45
2023-01-29T18:33:24.279Z,23.45
2023-01-29T18:35:28.157Z,20.60
2023-01-29T18:37:30.758Z,22.30
2023-01-29T18:39:33.124Z,26.48
2023-01-29T18:41:35.551Z,32.50
2023-01-29T18:43:39.000Z,28.27
2023-01-29T18:45:41.987Z,53.90
2023-01-29T18:47:44.553Z,27.90
2023-01-29T18:49:46.988Z,22.10
2023-01-29T18:51:49.637Z,22.38
2023-01-29T18:53:52.807Z,20.25
2023-01-29T18:56:05.197Z,19.20
2023-01-29T18:58:29.054Z,18.27
2023-01-29T19:00:30.006Z,19.35
2023-01-29T19:02:32.586Z,18.05
2023-01-29T19:04:35.164Z,19.75
2023-01-29T19:06:38.044Z,18.50
2023-01-29T19:08:41.277Z,17.90
2023-01-29T19:10:43.812Z,19.50
2023-01-29T19:12:46.314Z,19.38
2023-01-29T19:14:48.848Z,18.10
2023-01-29T19:16:51.518Z,18.27
2023-01-29T19:18:56.128Z,20.70
2023-01-29T19:20:58.572Z,20.40
2023-01-29T19:23:00.963Z,18.35
2023-01-29T19:25:04.123Z,17.35
2023-01-29T19:27:06.964Z,17.03
2023-01-29T19:29:09.667Z,18.73
2023-01-29T19:31:12.241Z,18.95
2023-01-29T19:33:14.742Z,20.40
2023-01-29T19:35:17.340Z,20.33
2023-01-29T19:37:19.911Z,17.00
2023-01-29T19:39:22.552Z,18.05
2023-01-29T19:41:25.251Z,21.00
2023-01-29T19:43:31.648Z,18.65
2023-01-29T19:45:49.901Z,19.98
2023-01-29T19:47:56.268Z,19.83
2023-01-29T19:49:58.759Z,18.48
2023-01-29T19:52:01.906Z,21.23
2023-01-29T19:54:04.426Z,19.98
2023-01-29T19:56:14.895Z,21.45
2023-01-29T19:58:17.325Z,20.03
2023-01-29T20:00:20.357Z,21.30
2023-01-29T20:02:24.881Z,23.23
2023-01-29T20:04:27.624Z,19.70
2023-01-29T20:06:33.117Z,20.35
2023-01-29T20:08:36.125Z,22.70
2023-01-29T20:10:38.712Z,21.42
2023-01-29T20:12:41.172Z,19.92
2023-01-29T20:14:48.956Z,21.52
2023-01-29T20:16:51.411Z,22.80
2023-01-29T20:18:53.820Z,22.80
2023-01-29T20:20:56.363Z,20.08
2023-01-29T20:22:59.497Z,18.92
2023-01-29T20:25:01.931Z,20.58
2023-01-29T20:27:04.911Z,21.00
2023-01-29T20:29:07.580Z,19.20
2023-01-29T20:31:10.464Z,20.77
2023-01-29T20:33:13.388Z,22.70
2023-01-29T20:35:15.843Z,20.48
2023-01-29T20:37:19.329Z,19.85
2023-01-29T20:39:21.788Z,21.20
2023-01-29T20:41:24.275Z,19.13
2023-01-29T20:43:26.718Z,19.55
2023-01-29T20:45:30.937Z,18.95
2023-01-29T20:47:33.464Z,18.38
2023-01-29T20:49:35.957Z,20.43
2023-01-29T20:51:38.538Z,18.05
2023-01-29T20:53:43.162Z,18.08
2023-01-29T20:55:46.391Z,18.73
2023-01-29T20:58:06.419Z,20.35
2023-01-29T21:00:11.178Z,22.33
2023-01-29T21:02:13.676Z,20.88
2023-01-29T21:04:16.233Z,17.50
2023-01-29T21:06:18.711Z,17.02
2023-01-29T21:08:21.478Z,26.70
2023-01-29T21:10:24.039Z,20.87
2023-01-29T21:12:26.522Z,20.17
2023-01-29T21:14:29.039Z,19.00
2023-01-29T21:16:31.668Z,19.20
2023-01-29T21:21:00.394Z,16.07
2023-01-29T21:23:05.263Z,17.88
2023-01-29T21:25:09.782Z,19.10
2023-01-29T21:27:12.258Z,20.25
2023-01-29T21:29:15.321Z,19.17
2023-01-29T21:31:17.947Z,19.87
2023-01-29T21:33:20.417Z,18.58
2023-01-29T21:35:22.951Z,16.67
2023-01-29T21:37:25.326Z,18.08
2023-01-29T21:39:27.775Z,18.83
2023-01-29T21:41:48.588Z,19.17
2023-01-29T21:43:51.011Z,17.88
2023-01-29T21:46:03.941Z,18.63
2023-01-29T21:48:06.948Z,18.83
2023-01-29T21:50:10.017Z,20.98
2023-01-29T21:52:13.584Z,19.73
2023-01-29T21:54:16.096Z,18.38
2023-01-29T21:56:19.727Z,17.27
2023-01-29T21:58:22.191Z,17.50
2023-01-29T22:00:24.739Z,17.00
2023-01-29T22:02:32.124Z,16.13
2023-01-29T22:04:34.659Z,16.67
2023-01-29T22:06:37.054Z,15.40
2023-01-29T22:08:39.514Z,14.27
2023-01-29T22:10:42.113Z,16.55
2023-01-29T22:12:44.888Z,15.80
2023-01-29T22:14:47.480Z,16.00
2023-01-29T22:16:50.120Z,14.43
2023-01-29T22:18:52.557Z,15.57
2023-01-29T22:20:55.883Z,15.68
2023-01-29T22:23:00.560Z,15.10
2023-01-29T22:25:03.456Z,15.55
2023-01-29T22:27:05.916Z,15.70
2023-01-29T22:29:08.479Z,16.02
2023-01-29T22:31:10.948Z,16.52
2023-01-29T22:33:13.360Z,17.10
2023-01-29T22:35:15.975Z,16.73
2023-01-29T22:37:18.450Z,17.17
2023-01-29T22:39:20.836Z,15.43
2023-01-29T22:41:23.295Z,15.25
2023-01-29T22:43:29.296Z,16.23
2023-01-29T22:45:32.001Z,17.33
2023-01-29T22:47:34.537Z,16.40
2023-01-29T22:49:36.945Z,17.90
2023-01-29T22:51:39.397Z,15.45
2023-01-29T22:53:43.309Z,16.07
2023-01-29T22:55:55.274Z,15.27
2023-01-29T22:57:57.855Z,16.10
2023-01-29T23:00:00.371Z,14.77
2023-01-29T23:02:02.885Z,15.88
2023-01-29T23:04:05.278Z,15.17
2023-01-29T23:06:07.749Z,17.25
2023-01-29T23:08:10.085Z,16.63
2023-01-29T23:10:14.860Z,17.27
2023-01-29T23:12:17.416Z,16.20
2023-01-29T23:14:19.953Z,16.40
2023-01-29T23:16:26.936Z,17.75
2023-01-29T23:18:30.387Z,17.05
2023-01-29T23:20:32.872Z,19.15
2023-01-29T23:22:35.455Z,19.15
2023-01-29T23:24:37.870Z,19.30
2023-01-29T23:26:59.035Z,21.40
2023-01-29T23:29:01.613Z,21.48
2023-01-29T23:31:04.108Z,19.67
2023-01-29T23:33:06.573Z,19.70
2023-01-29T23:35:09.288Z,18.73
2023-01-29T23:37:12.070Z,19.52
2023-01-29T23:39:14.737Z,19.80
2023-01-29T23:41:17.117Z,17.70
2023-01-29T23:43:21.310Z,20.60
2023-01-29T23:45:23.672Z,20.27
2023-01-29T23:47:26.039Z,18.42
2023-01-29T23:49:29.142Z,17.95
2023-01-29T23:51:31.579Z,17.55
2023-01-29T23:53:34.023Z,15.90
2023-01-29T23:55:36.480Z,15.70
2023-01-29T23:57:38.912Z,15.80
2023-01-29T23:59:41.359Z,15.52
